Craig, Iowa
Current Conditions -  °F | °C
As of 6:35 PM on Monday 24 Nov 2014 (Local Time) from KLRJ Reporting Station
Clear Clear  
Wind Chill: 11°   Ceiling: Unl
Heat Index: 25°   Visibility: 10mi
Dew Point: 16°   Wind: 17mph
Humidity: 69%   Direction: 320°NW
Pressure: 29.95"   Gusts: 23mph
Location:  42.9°N, 96.31°W
Report Text: KLRJ 250035Z AUTO 32015G20KT 10SM CLR M04/M09 A2995 RMK AO2
Loading
Personal Weather Stations






























Interactive Weather Map New forecast layout! Learn more

10-Day Weather Forecast

Advertisements
Track Severe Weather on mobile